createdAt,value
2017-12-16T00:01:27.945Z,989.31
2017-12-16T00:02:27.844Z,989.33
2017-12-16T00:04:20.725Z,989.37
2017-12-16T00:05:20.690Z,989.38
2017-12-16T00:07:13.610Z,989.40
2017-12-16T00:08:13.544Z,989.42
2017-12-16T00:10:06.432Z,989.40
2017-12-16T00:11:06.403Z,989.39
2017-12-16T00:12:59.307Z,989.41
2017-12-16T00:13:59.247Z,989.43
2017-12-16T00:15:52.127Z,989.49
2017-12-16T00:16:52.093Z,989.49
2017-12-16T00:18:45.007Z,989.54
2017-12-16T00:19:45.009Z,989.54
2017-12-16T00:21:37.829Z,989.53
2017-12-16T00:22:37.806Z,989.55
2017-12-16T00:24:30.721Z,989.61
2017-12-16T00:25:30.649Z,989.60
2017-12-16T00:27:23.527Z,989.64
2017-12-16T00:28:23.561Z,989.64
2017-12-16T00:30:16.414Z,989.63
2017-12-16T00:31:16.410Z,989.66
2017-12-16T00:33:09.235Z,989.66
2017-12-16T00:34:09.193Z,989.63
2017-12-16T00:36:02.115Z,989.68
2017-12-16T00:37:02.114Z,989.67
2017-12-16T00:38:54.927Z,989.70
2017-12-16T00:39:54.963Z,989.69
2017-12-16T00:41:47.821Z,989.70
2017-12-16T00:42:47.814Z,989.70
2017-12-16T00:44:40.639Z,989.77
2017-12-16T00:45:40.599Z,989.74
2017-12-16T00:47:33.550Z,989.75
2017-12-16T00:48:33.453Z,989.76
2017-12-16T00:50:26.335Z,989.75
2017-12-16T00:51:26.304Z,989.80
2017-12-16T00:53:19.301Z,989.76
2017-12-16T00:54:19.157Z,989.75
2017-12-16T00:56:12.039Z,989.74
2017-12-16T00:57:12.003Z,989.74
2017-12-16T00:59:05.976Z,989.73
2017-12-16T01:00:04.850Z,989.75
2017-12-16T01:01:57.815Z,989.75
2017-12-16T01:02:57.707Z,989.77
2017-12-16T01:05:02.739Z,989.81
2017-12-16T01:06:02.634Z,989.83
2017-12-16T01:07:55.522Z,989.85
2017-12-16T01:08:55.551Z,989.89
2017-12-16T01:10:48.401Z,989.93
2017-12-16T01:11:48.403Z,990.00
2017-12-16T01:13:41.218Z,990.00
2017-12-16T01:14:41.188Z,989.98
2017-12-16T01:16:34.106Z,990.02
2017-12-16T01:17:34.101Z,990.07
2017-12-16T01:19:26.992Z,990.01
2017-12-16T01:20:26.885Z,990.06
2017-12-16T01:22:19.842Z,990.05
2017-12-16T01:23:19.742Z,990.15
2017-12-16T01:25:12.694Z,990.14
2017-12-16T01:26:12.597Z,990.16
2017-12-16T01:28:05.549Z,990.22
2017-12-16T01:29:05.441Z,990.21
2017-12-16T01:30:58.329Z,990.24
2017-12-16T01:31:58.289Z,990.25
2017-12-16T01:33:51.238Z,990.25
2017-12-16T01:34:51.141Z,990.27
2017-12-16T01:36:44.022Z,990.29
2017-12-16T01:37:44.054Z,990.32
2017-12-16T01:39:36.913Z,990.28
2017-12-16T01:40:36.844Z,990.35
2017-12-16T01:42:29.744Z,990.37
2017-12-16T01:43:29.695Z,990.35
2017-12-16T01:45:22.616Z,990.41
2017-12-16T01:46:22.541Z,990.41
2017-12-16T01:48:15.428Z,990.42
2017-12-16T01:49:15.440Z,990.43
2017-12-16T01:51:08.342Z,990.40
2017-12-16T01:52:08.246Z,990.42
2017-12-16T01:54:01.197Z,990.43
2017-12-16T01:55:01.092Z,990.47
2017-12-16T01:56:54.048Z,990.50
2017-12-16T01:57:53.944Z,990.51
2017-12-16T01:59:46.895Z,990.53
2017-12-16T02:00:46.797Z,990.53
2017-12-16T02:02:39.745Z,990.57
2017-12-16T02:03:39.652Z,990.61
2017-12-16T02:05:32.594Z,990.61
2017-12-16T02:06:32.499Z,990.66
2017-12-16T02:08:25.449Z,990.69
2017-12-16T02:09:25.350Z,990.67
2017-12-16T02:11:18.230Z,990.66
2017-12-16T02:12:18.195Z,990.70
2017-12-16T02:14:11.145Z,990.71
2017-12-16T02:15:11.051Z,990.80
2017-12-16T02:17:03.931Z,990.78
2017-12-16T02:18:03.961Z,990.80
2017-12-16T02:19:56.813Z,990.84
2017-12-16T02:20:56.811Z,990.87
2017-12-16T02:22:49.629Z,990.86
2017-12-16T02:23:49.604Z,990.88
2017-12-16T02:25:42.553Z,990.85
2017-12-16T02:26:42.448Z,990.86
2017-12-16T02:28:35.336Z,990.83
2017-12-16T02:29:35.361Z,990.79
2017-12-16T02:31:28.216Z,990.83
2017-12-16T02:32:28.154Z,990.81
2017-12-16T02:34:21.036Z,990.85
2017-12-16T02:35:21.000Z,990.84
2017-12-16T02:37:13.953Z,990.86
2017-12-16T02:38:13.854Z,990.88
2017-12-16T02:40:06.805Z,990.90
2017-12-16T02:41:06.705Z,990.89
2017-12-16T02:42:59.620Z,990.93
2017-12-16T02:43:59.615Z,990.93
2017-12-16T02:45:52.439Z,990.92
2017-12-16T02:46:52.405Z,990.94
2017-12-16T02:48:45.324Z,990.94
2017-12-16T02:49:45.252Z,990.97
2017-12-16T02:51:38.138Z,990.98
2017-12-16T02:52:38.173Z,990.97
2017-12-16T02:54:31.027Z,991.04
2017-12-16T02:55:31.019Z,991.04
2017-12-16T02:57:23.840Z,991.05
2017-12-16T02:58:23.812Z,991.13
2017-12-16T03:00:18.808Z,991.07
2017-12-16T03:01:16.654Z,991.12
2017-12-16T03:03:09.537Z,991.11
2017-12-16T03:04:09.509Z,991.12
2017-12-16T03:06:02.462Z,991.21
2017-12-16T03:07:02.358Z,991.17
2017-12-16T03:08:55.313Z,991.28
2017-12-16T03:09:55.203Z,991.27
2017-12-16T03:11:48.670Z,991.29
2017-12-16T03:12:48.570Z,991.29
2017-12-16T03:14:41.521Z,991.31
2017-12-16T03:15:41.420Z,991.32
2017-12-16T03:17:34.374Z,991.33
2017-12-16T03:18:34.267Z,991.33
2017-12-16T03:20:27.155Z,991.36
2017-12-16T03:21:27.123Z,991.37
2017-12-16T03:23:20.038Z,991.36
2017-12-16T03:24:19.974Z,991.41
2017-12-16T03:26:12.918Z,991.36
2017-12-16T03:27:12.823Z,991.35
2017-12-16T03:29:05.738Z,991.39
2017-12-16T03:30:05.734Z,991.40
2017-12-16T03:31:58.557Z,991.44
2017-12-16T03:32:58.568Z,991.42
2017-12-16T03:34:51.435Z,991.43
2017-12-16T03:35:51.377Z,991.47
2017-12-16T03:37:44.323Z,991.47
2017-12-16T03:38:44.230Z,991.45
2017-12-16T03:40:37.185Z,991.48
2017-12-16T03:41:37.073Z,991.45
2017-12-16T03:43:29.955Z,991.49
2017-12-16T03:44:29.927Z,991.48
2017-12-16T03:46:22.848Z,991.51
2017-12-16T03:47:22.784Z,991.53
2017-12-16T03:49:15.661Z,991.52
2017-12-16T03:50:15.625Z,991.52
2017-12-16T03:52:08.542Z,991.59
2017-12-16T03:53:08.480Z,991.61
2017-12-16T03:55:01.428Z,991.64
2017-12-16T03:56:01.330Z,991.67
2017-12-16T03:57:54.234Z,991.69
2017-12-16T03:58:54.244Z,991.71
2017-12-16T04:00:47.134Z,991.70
2017-12-16T04:01:47.031Z,991.77
2017-12-16T04:03:39.981Z,991.74
2017-12-16T04:04:39.878Z,991.76
2017-12-16T04:06:32.826Z,991.77
2017-12-16T04:07:32.734Z,991.81
2017-12-16T04:09:25.681Z,991.79
2017-12-16T04:10:25.578Z,991.83
2017-12-16T04:12:18.467Z,991.84
2017-12-16T04:13:18.428Z,991.82
2017-12-16T04:15:11.362Z,991.82
2017-12-16T04:16:11.344Z,991.81
2017-12-16T04:18:04.159Z,991.83
2017-12-16T04:19:04.193Z,991.82
2017-12-16T04:20:57.082Z,991.82
2017-12-16T04:21:56.976Z,991.89
2017-12-16T04:23:49.862Z,991.86
2017-12-16T04:24:49.833Z,991.87
2017-12-16T04:26:42.776Z,991.90
2017-12-16T04:27:42.679Z,991.91
2017-12-16T04:29:35.592Z,991.94
2017-12-16T04:30:35.538Z,991.94
2017-12-16T04:32:28.416Z,991.92
2017-12-16T04:33:28.378Z,991.94
2017-12-16T04:35:21.303Z,991.92
2017-12-16T04:36:21.245Z,991.94
2017-12-16T04:38:14.115Z,991.99
2017-12-16T04:39:14.144Z,992.00
2017-12-16T04:41:07.002Z,992.01
2017-12-16T04:42:06.937Z,992.00
2017-12-16T04:43:59.813Z,992.00
2017-12-16T04:44:59.786Z,992.04
2017-12-16T04:46:52.692Z,992.04
2017-12-16T04:47:52.702Z,992.03
2017-12-16T04:49:45.588Z,992.02
2017-12-16T04:50:45.485Z,992.02
2017-12-16T04:52:38.435Z,992.04
2017-12-16T04:53:38.347Z,992.03
2017-12-16T04:55:31.282Z,992.05
2017-12-16T04:56:31.187Z,992.05
2017-12-16T04:58:24.101Z,992.07
2017-12-16T04:59:24.101Z,992.06
2017-12-16T05:01:16.922Z,992.10
2017-12-16T05:02:16.886Z,992.12
2017-12-16T05:04:10.864Z,992.14
2017-12-16T05:05:09.745Z,992.16
2017-12-16T05:07:02.688Z,992.18
2017-12-16T05:08:02.607Z,992.21
2017-12-16T05:09:55.546Z,992.21
2017-12-16T05:10:55.438Z,992.24
2017-12-16T05:12:48.325Z,992.30
2017-12-16T05:13:48.285Z,992.30
2017-12-16T05:15:41.717Z,992.32
2017-12-16T05:16:41.715Z,992.31
2017-12-16T05:18:34.603Z,992.34
2017-12-16T05:19:34.506Z,992.36
2017-12-16T05:21:27.414Z,992.41
2017-12-16T05:22:27.415Z,992.44
2017-12-16T05:24:21.324Z,992.40
2017-12-16T05:25:20.203Z,992.41
2017-12-16T05:27:13.110Z,992.40
2017-12-16T05:28:13.053Z,992.40
2017-12-16T05:30:06.009Z,992.40
2017-12-16T05:31:05.900Z,992.42
2017-12-16T05:32:58.807Z,992.40
2017-12-16T05:33:58.817Z,992.41
2017-12-16T05:35:51.706Z,992.43
2017-12-16T05:36:51.608Z,992.44
2017-12-16T05:38:44.552Z,992.47
2017-12-16T05:39:44.459Z,992.54
2017-12-16T05:41:37.403Z,992.57
2017-12-16T05:42:37.307Z,992.60
2017-12-16T05:44:30.258Z,992.57
2017-12-16T05:45:30.160Z,992.61
2017-12-16T05:47:23.105Z,992.59
2017-12-16T05:48:23.007Z,992.63
2017-12-16T05:50:15.959Z,992.62
2017-12-16T05:51:15.858Z,992.69
2017-12-16T05:53:08.808Z,992.71
2017-12-16T05:54:08.705Z,992.72
2017-12-16T05:56:01.659Z,992.71
2017-12-16T05:57:01.557Z,992.68
2017-12-16T05:58:54.513Z,992.76
2017-12-16T05:59:54.407Z,992.76
2017-12-16T06:01:47.358Z,992.81
2017-12-16T06:02:47.261Z,992.81
2017-12-16T06:04:40.205Z,992.79
2017-12-16T06:05:40.174Z,992.79
2017-12-16T06:07:33.056Z,992.85
2017-12-16T06:08:32.957Z,992.86
2017-12-16T06:10:25.846Z,992.86
2017-12-16T06:11:25.814Z,992.87
2017-12-16T06:13:19.786Z,992.88
2017-12-16T06:14:18.659Z,992.87
2017-12-16T06:16:11.548Z,992.90
2017-12-16T06:17:11.575Z,992.90
2017-12-16T06:19:04.425Z,992.93
2017-12-16T06:20:04.359Z,992.92
2017-12-16T06:21:57.246Z,992.99
2017-12-16T06:22:57.210Z,993.02
2017-12-16T06:24:50.125Z,993.03
2017-12-16T06:25:50.127Z,993.02
2017-12-16T06:27:42.951Z,993.04
2017-12-16T06:28:42.981Z,993.03
2017-12-16T06:30:35.826Z,993.05
2017-12-16T06:31:35.825Z,993.03
2017-12-16T06:33:28.648Z,993.08
2017-12-16T06:34:28.684Z,993.12
2017-12-16T06:36:21.535Z,993.11
2017-12-16T06:37:21.527Z,993.15
2017-12-16T06:39:14.351Z,993.17
2017-12-16T06:40:14.377Z,993.20
2017-12-16T06:42:07.229Z,993.26
2017-12-16T06:43:07.166Z,993.25
2017-12-16T06:45:00.228Z,993.26
2017-12-16T06:46:00.015Z,993.29
2017-12-16T06:47:52.969Z,993.33
2017-12-16T06:48:52.864Z,993.34
2017-12-16T06:50:45.752Z,993.41
2017-12-16T06:51:45.779Z,993.39
2017-12-16T06:53:38.667Z,993.39
2017-12-16T06:54:38.567Z,993.40
2017-12-16T06:56:31.516Z,993.38
2017-12-16T06:57:31.420Z,993.41
2017-12-16T06:59:24.332Z,993.39
2017-12-16T07:00:26.279Z,993.40
2017-12-16T07:02:17.242Z,993.46
2017-12-16T07:03:17.117Z,993.51
2017-12-16T07:05:10.585Z,993.49
2017-12-16T07:06:10.515Z,993.52
2017-12-16T07:08:03.428Z,993.57
2017-12-16T07:09:03.329Z,993.57
2017-12-16T07:10:56.379Z,993.59
2017-12-16T07:11:56.216Z,993.60
2017-12-16T07:13:49.132Z,993.61
2017-12-16T07:14:49.098Z,993.66
2017-12-16T07:16:41.945Z,993.68
2017-12-16T07:17:41.884Z,993.66
2017-12-16T07:19:34.835Z,993.70
2017-12-16T07:20:34.740Z,993.74
2017-12-16T07:22:27.651Z,993.74
2017-12-16T07:23:27.584Z,993.79
2017-12-16T07:25:20.532Z,993.82
2017-12-16T07:26:20.434Z,993.78
2017-12-16T07:28:13.350Z,993.84
2017-12-16T07:29:13.301Z,993.83
2017-12-16T07:31:06.237Z,993.85
2017-12-16T07:32:06.132Z,993.89
2017-12-16T07:33:59.053Z,993.92
2017-12-16T07:34:58.995Z,993.95
2017-12-16T07:36:51.932Z,994.01
2017-12-16T07:37:51.837Z,994.04
2017-12-16T07:39:44.787Z,994.07
2017-12-16T07:40:44.685Z,994.13
2017-12-16T07:42:37.637Z,994.17
2017-12-16T07:43:37.600Z,994.19
2017-12-16T07:45:30.443Z,994.25
2017-12-16T07:46:30.396Z,994.23
2017-12-16T07:48:23.274Z,994.26
2017-12-16T07:49:23.240Z,994.35
2017-12-16T07:51:16.192Z,994.38
2017-12-16T07:52:16.087Z,994.34
2017-12-16T07:54:08.976Z,994.42
2017-12-16T07:55:09.002Z,994.41
2017-12-16T07:57:01.895Z,994.47
2017-12-16T07:58:01.790Z,994.48
2017-12-16T07:59:54.678Z,994.50
2017-12-16T08:00:54.641Z,994.54
2017-12-16T08:02:47.596Z,994.54
2017-12-16T08:03:47.492Z,994.59
2017-12-16T08:05:40.473Z,994.58
2017-12-16T08:06:40.446Z,994.55
2017-12-16T08:08:33.397Z,994.61
2017-12-16T08:09:33.303Z,994.68
2017-12-16T08:11:26.249Z,994.70
2017-12-16T08:12:26.148Z,994.70
2017-12-16T08:14:19.101Z,994.72
2017-12-16T08:15:18.997Z,994.73
2017-12-16T08:17:11.885Z,994.77
2017-12-16T08:18:11.844Z,994.80
2017-12-16T08:20:04.801Z,994.86
2017-12-16T08:21:04.696Z,994.80
2017-12-16T08:22:57.586Z,994.84
2017-12-16T08:23:57.613Z,994.83
2017-12-16T08:25:50.459Z,994.89
2017-12-16T08:26:50.465Z,994.89
2017-12-16T08:28:43.282Z,994.92
2017-12-16T08:29:43.311Z,994.92
2017-12-16T08:31:36.216Z,994.92
2017-12-16T08:32:36.167Z,994.95
2017-12-16T08:34:29.047Z,995.06
2017-12-16T08:35:28.957Z,995.05
2017-12-16T08:37:21.870Z,995.06
2017-12-16T08:38:21.866Z,995.09
2017-12-16T08:40:14.696Z,995.12
2017-12-16T08:41:14.713Z,995.12
2017-12-16T08:43:07.562Z,995.11
2017-12-16T08:44:07.571Z,995.19
2017-12-16T08:46:00.388Z,995.21
2017-12-16T08:47:00.360Z,995.22
2017-12-16T08:48:53.265Z,995.26
2017-12-16T08:49:53.267Z,995.29
2017-12-16T08:51:46.150Z,995.33
2017-12-16T08:52:46.062Z,995.31
2017-12-16T08:54:38.971Z,995.36
2017-12-16T08:55:38.964Z,995.37
2017-12-16T08:57:36.461Z,995.39
2017-12-16T08:58:33.007Z,995.39
2017-12-16T09:00:26.067Z,995.43
2017-12-16T09:01:26.031Z,995.44
2017-12-16T09:06:22.813Z,995.45
2017-12-16T09:07:22.806Z,995.48
2017-12-16T09:09:15.806Z,995.52
2017-12-16T09:10:15.866Z,995.53
2017-12-16T09:12:08.637Z,995.55
2017-12-16T09:13:08.725Z,995.59
2017-12-16T09:15:01.315Z,995.59
2017-12-16T09:16:01.251Z,995.60
2017-12-16T09:17:55.307Z,995.67
2017-12-16T09:18:54.136Z,995.70
2017-12-16T09:20:47.925Z,995.73
2017-12-16T09:21:47.935Z,995.72
2017-12-16T09:25:12.445Z,995.73
2017-12-16T09:26:12.556Z,995.77
2017-12-16T09:28:05.328Z,995.81
2017-12-16T09:29:05.469Z,995.83
2017-12-16T09:30:58.273Z,995.89
2017-12-16T09:31:58.072Z,995.93
2017-12-16T09:33:50.989Z,995.96
2017-12-16T09:34:50.987Z,995.93
2017-12-16T09:36:43.859Z,995.97
2017-12-16T09:37:43.810Z,995.96
2017-12-16T09:39:36.767Z,996.04
2017-12-16T09:40:36.664Z,996.03
2017-12-16T09:42:29.628Z,996.09
2017-12-16T09:43:29.554Z,996.07
2017-12-16T09:45:22.383Z,996.12
2017-12-16T09:46:22.368Z,996.14
2017-12-16T09:48:15.314Z,996.16
2017-12-16T09:49:15.222Z,996.22
2017-12-16T09:51:08.140Z,996.23
2017-12-16T09:52:07.993Z,996.19
2017-12-16T09:54:00.942Z,996.26
2017-12-16T09:55:00.913Z,996.29
2017-12-16T09:56:53.788Z,996.30
2017-12-16T09:57:53.796Z,996.28
2017-12-16T09:59:46.688Z,996.29
2017-12-16T10:00:46.599Z,996.35
2017-12-16T10:02:39.541Z,996.31
2017-12-16T10:03:39.443Z,996.38
2017-12-16T10:05:32.356Z,996.35
2017-12-16T10:06:32.300Z,996.31
2017-12-16T10:08:25.259Z,996.31
2017-12-16T10:09:25.150Z,996.26
2017-12-16T10:11:18.065Z,996.27
2017-12-16T10:12:17.995Z,996.28
2017-12-16T10:14:10.964Z,996.27
2017-12-16T10:15:10.848Z,996.25
2017-12-16T10:17:03.772Z,996.32
2017-12-16T10:18:03.686Z,996.28
2017-12-16T10:19:57.691Z,996.33
2017-12-16T10:20:56.564Z,996.34
2017-12-16T10:22:49.466Z,996.41
2017-12-16T10:23:49.402Z,996.36
2017-12-16T10:25:42.272Z,996.37
2017-12-16T10:26:42.294Z,996.42
2017-12-16T10:28:35.166Z,996.34
2017-12-16T10:29:35.114Z,996.36
2017-12-16T10:31:27.975Z,996.43
2017-12-16T10:32:27.948Z,996.42
2017-12-16T10:34:20.870Z,996.42
2017-12-16T10:35:20.793Z,996.43
2017-12-16T10:37:13.958Z,996.36
2017-12-16T10:38:13.731Z,996.44
2017-12-16T10:40:06.965Z,996.47
2017-12-16T10:41:06.677Z,996.54
2017-12-16T10:42:59.857Z,996.52
2017-12-16T10:43:59.638Z,996.52
2017-12-16T10:45:52.653Z,996.54
2017-12-16T10:46:52.586Z,996.55
2017-12-16T10:48:45.755Z,996.64
2017-12-16T10:49:45.538Z,996.53
2017-12-16T10:51:38.551Z,996.61
2017-12-16T10:52:38.493Z,996.57
2017-12-16T10:54:31.706Z,996.55
2017-12-16T10:55:31.445Z,996.58
2017-12-16T10:57:24.666Z,996.57
2017-12-16T10:58:24.640Z,996.55
2017-12-16T11:00:17.659Z,996.54
2017-12-16T11:01:17.556Z,996.57
2017-12-16T11:03:10.572Z,996.56
2017-12-16T11:04:10.512Z,996.55
2017-12-16T11:09:06.759Z,996.59
2017-12-16T11:10:06.651Z,996.69
2017-12-16T11:11:59.536Z,996.63
2017-12-16T11:12:59.570Z,996.66
2017-12-16T11:14:52.447Z,996.65
2017-12-16T11:15:52.360Z,996.68
2017-12-16T11:17:45.261Z,996.71
2017-12-16T11:18:45.212Z,996.69
2017-12-16T11:20:39.108Z,996.72
2017-12-16T11:21:38.061Z,996.75
2017-12-16T11:25:02.655Z,996.79
2017-12-16T11:26:02.554Z,996.78
2017-12-16T11:27:55.478Z,996.80
2017-12-16T11:28:55.413Z,996.77
2017-12-16T11:32:19.937Z,996.81
2017-12-16T11:33:19.899Z,996.82
2017-12-16T11:38:16.149Z,996.90
2017-12-16T11:39:16.050Z,996.91
2017-12-16T11:41:08.996Z,996.96
2017-12-16T11:42:08.908Z,996.89
2017-12-16T11:44:01.785Z,996.89
2017-12-16T11:45:01.775Z,996.92
2017-12-16T11:46:54.738Z,996.97
2017-12-16T11:47:54.606Z,996.95
2017-12-16T11:49:47.556Z,996.96
2017-12-16T11:50:47.450Z,996.96
2017-12-16T11:52:40.404Z,996.93
2017-12-16T11:53:40.314Z,996.92
2017-12-16T11:55:33.256Z,996.90
2017-12-16T11:56:33.157Z,996.89
2017-12-16T11:58:26.104Z,996.90
2017-12-16T11:59:26.069Z,996.94
2017-12-16T12:01:18.956Z,996.99
2017-12-16T12:02:18.860Z,996.96
2017-12-16T12:04:11.807Z,996.99
2017-12-16T12:05:11.770Z,996.96
2017-12-16T12:07:04.654Z,996.96
2017-12-16T12:08:04.558Z,997.00
2017-12-16T12:09:57.468Z,996.99
2017-12-16T12:10:57.410Z,996.96
2017-12-16T12:12:50.292Z,996.97
2017-12-16T12:13:50.256Z,996.97
2017-12-16T12:15:43.176Z,997.01
2017-12-16T12:16:43.115Z,997.03
2017-12-16T12:18:35.993Z,996.98
2017-12-16T12:19:35.957Z,997.06
2017-12-16T12:21:28.876Z,996.96
2017-12-16T12:22:28.809Z,996.97
2017-12-16T12:24:21.687Z,997.03
2017-12-16T12:25:21.661Z,997.03
2017-12-16T12:27:14.577Z,997.03
2017-12-16T12:28:14.509Z,997.09
2017-12-16T12:30:07.461Z,997.03
2017-12-16T12:31:07.363Z,997.07
2017-12-16T12:33:00.279Z,997.02
2017-12-16T12:34:00.214Z,997.06
2017-12-16T12:35:53.164Z,997.07
2017-12-16T12:36:53.065Z,997.09
2017-12-16T12:38:45.975Z,997.13
2017-12-16T12:39:45.915Z,997.12
2017-12-16T12:41:38.865Z,997.14
2017-12-16T12:42:38.765Z,997.17
2017-12-16T12:44:31.677Z,997.24
2017-12-16T12:45:31.679Z,997.17
2017-12-16T12:47:24.495Z,997.21
2017-12-16T12:48:24.471Z,997.19
2017-12-16T12:50:17.376Z,997.20
2017-12-16T12:51:17.316Z,997.20
2017-12-16T12:53:10.197Z,997.20
2017-12-16T12:54:10.166Z,997.20
2017-12-16T12:56:03.094Z,997.30
2017-12-16T12:57:03.083Z,997.18
2017-12-16T12:58:56.481Z,997.27
2017-12-16T12:59:56.377Z,997.29
2017-12-16T13:01:50.176Z,997.23
2017-12-16T13:02:49.751Z,997.31
2017-12-16T13:04:42.635Z,997.25
2017-12-16T13:05:42.658Z,997.28
2017-12-16T13:07:35.506Z,997.30
2017-12-16T13:08:35.443Z,997.26
2017-12-16T13:10:29.350Z,997.31
2017-12-16T13:11:29.317Z,997.32
2017-12-16T13:13:22.235Z,997.34
2017-12-16T13:14:22.168Z,997.29
2017-12-16T13:16:15.051Z,997.33
2017-12-16T13:17:15.024Z,997.23
2017-12-16T13:19:07.928Z,997.21
2017-12-16T13:20:07.868Z,997.22
2017-12-16T13:22:00.820Z,997.21
2017-12-16T13:23:00.720Z,997.19
2017-12-16T13:24:53.630Z,997.35
2017-12-16T13:25:53.564Z,997.31
2017-12-16T13:27:46.455Z,997.32
2017-12-16T13:28:46.423Z,997.38
2017-12-16T13:30:39.370Z,997.40
2017-12-16T13:31:39.273Z,997.36
2017-12-16T13:33:32.218Z,997.41
2017-12-16T13:34:32.118Z,997.42
2017-12-16T13:36:25.067Z,997.45
2017-12-16T13:37:24.970Z,997.48
2017-12-16T13:39:17.850Z,997.58
2017-12-16T13:40:17.822Z,997.50
2017-12-16T13:42:11.792Z,997.52
2017-12-16T13:43:10.671Z,997.59
2017-12-16T13:45:03.557Z,997.53
2017-12-16T13:46:03.523Z,997.56
2017-12-16T13:47:56.470Z,997.59
2017-12-16T13:48:56.369Z,997.64
2017-12-16T13:50:49.327Z,997.61
2017-12-16T13:51:49.235Z,997.64
2017-12-16T13:53:42.176Z,997.62
2017-12-16T13:54:42.073Z,997.68
2017-12-16T13:56:35.021Z,997.63
2017-12-16T13:57:34.928Z,997.61
2017-12-16T13:59:27.870Z,997.65
2017-12-16T14:00:27.773Z,997.65
2017-12-16T14:02:20.726Z,997.68
2017-12-16T14:03:20.620Z,997.71
2017-12-16T14:05:13.577Z,997.75
2017-12-16T14:06:13.486Z,997.71
2017-12-16T14:08:06.361Z,997.72
2017-12-16T14:09:06.331Z,997.77
2017-12-16T14:10:59.241Z,997.75
2017-12-16T14:11:59.172Z,997.74
2017-12-16T14:13:52.123Z,997.78
2017-12-16T14:14:52.025Z,997.75
2017-12-16T14:16:44.942Z,997.78
2017-12-16T14:17:44.876Z,997.83
2017-12-16T14:19:37.823Z,997.83
2017-12-16T14:20:37.728Z,997.79
2017-12-16T14:22:30.704Z,997.87
2017-12-16T14:23:30.587Z,997.90
2017-12-16T14:25:23.529Z,997.94
2017-12-16T14:26:23.427Z,997.91
2017-12-16T14:28:16.387Z,997.99
2017-12-16T14:29:16.280Z,997.96
2017-12-16T14:31:09.163Z,997.95
2017-12-16T14:32:09.125Z,997.96
2017-12-16T14:34:02.081Z,997.95
2017-12-16T14:35:02.002Z,997.96
2017-12-16T14:36:54.862Z,998.01
2017-12-16T14:37:54.839Z,997.99
2017-12-16T14:39:47.747Z,998.04
2017-12-16T14:40:47.742Z,998.06
2017-12-16T14:42:40.590Z,998.09
2017-12-16T14:43:40.594Z,998.10
2017-12-16T14:45:33.486Z,998.10
2017-12-16T14:46:33.377Z,998.12
2017-12-16T14:48:26.329Z,998.16
2017-12-16T14:49:26.234Z,998.21
2017-12-16T14:51:19.147Z,998.23
2017-12-16T14:52:19.090Z,998.23
2017-12-16T14:54:11.968Z,998.24
2017-12-16T14:55:11.936Z,998.24
2017-12-16T14:57:04.852Z,998.26
2017-12-16T14:58:04.786Z,998.31
2017-12-16T14:59:58.184Z,998.33
2017-12-16T15:00:58.145Z,998.31
2017-12-16T15:02:51.061Z,998.32
2017-12-16T15:03:50.996Z,998.37
2017-12-16T15:05:43.883Z,998.36
2017-12-16T15:06:43.910Z,998.33
2017-12-16T15:08:36.761Z,998.34
2017-12-16T15:09:36.761Z,998.36
2017-12-16T15:11:29.646Z,998.39
2017-12-16T15:12:29.550Z,998.51
2017-12-16T15:14:23.486Z,998.43
2017-12-16T15:15:23.423Z,998.46
2017-12-16T15:17:16.374Z,998.46
2017-12-16T15:18:16.273Z,998.44
2017-12-16T15:20:09.186Z,998.50
2017-12-16T15:21:09.121Z,998.54
2017-12-16T15:23:02.072Z,998.51
2017-12-16T15:24:01.975Z,998.56
2017-12-16T15:25:54.888Z,998.63
2017-12-16T15:26:54.822Z,998.66
2017-12-16T15:28:47.709Z,998.75
2017-12-16T15:29:47.673Z,998.73
2017-12-16T15:31:40.596Z,998.78
2017-12-16T15:32:40.525Z,998.81
2017-12-16T15:34:33.419Z,998.84
2017-12-16T15:35:33.375Z,998.91
2017-12-16T15:37:26.295Z,998.86
2017-12-16T15:38:26.228Z,998.86
2017-12-16T15:40:19.111Z,998.97
2017-12-16T15:41:19.148Z,998.94
2017-12-16T15:43:11.993Z,998.98
2017-12-16T15:44:11.929Z,999.00
2017-12-16T15:46:04.874Z,999.04
2017-12-16T15:47:04.786Z,999.03
2017-12-16T15:48:57.694Z,999.06
2017-12-16T15:49:57.692Z,999.12
2017-12-16T15:51:50.577Z,999.04
2017-12-16T15:52:50.486Z,999.12
2017-12-16T15:54:43.396Z,999.11
2017-12-16T15:55:43.329Z,999.14
2017-12-16T15:57:36.280Z,999.22
2017-12-16T15:58:36.183Z,999.20
2017-12-16T16:00:29.190Z,999.24
2017-12-16T16:01:29.299Z,999.27
2017-12-16T16:03:22.284Z,999.35
2017-12-16T16:04:22.080Z,999.33
2017-12-16T16:06:15.248Z,999.41
2017-12-16T16:07:15.038Z,999.43
2017-12-16T16:09:08.023Z,999.40
2017-12-16T16:10:08.052Z,999.38
2017-12-16T16:12:01.006Z,999.41
2017-12-16T16:13:01.109Z,999.47
2017-12-16T16:14:53.928Z,999.45
2017-12-16T16:15:53.895Z,999.45
2017-12-16T16:17:46.912Z,999.48
2017-12-16T16:18:47.013Z,999.54
2017-12-16T16:20:39.828Z,999.56
2017-12-16T16:21:39.804Z,999.55
2017-12-16T16:23:32.810Z,999.55
2017-12-16T16:24:32.751Z,999.62
2017-12-16T16:26:25.707Z,999.57
2017-12-16T16:27:25.613Z,999.58
2017-12-16T16:29:18.560Z,999.63
2017-12-16T16:30:18.522Z,999.60
2017-12-16T16:32:11.340Z,999.62
2017-12-16T16:33:11.370Z,999.67
2017-12-16T16:35:04.260Z,999.70
2017-12-16T16:36:04.222Z,999.66
2017-12-16T16:37:57.109Z,999.67
2017-12-16T16:38:57.018Z,999.70
2017-12-16T16:40:49.923Z,999.68
2017-12-16T16:41:49.861Z,999.71
2017-12-16T16:43:42.811Z,999.71
2017-12-16T16:44:42.710Z,999.73
2017-12-16T16:46:35.627Z,999.77
2017-12-16T16:47:35.558Z,999.79
2017-12-16T16:49:28.508Z,999.84
2017-12-16T16:50:28.417Z,999.79
2017-12-16T16:52:21.360Z,999.90
2017-12-16T16:53:21.267Z,999.86
2017-12-16T16:55:14.142Z,999.91
2017-12-16T16:56:14.120Z,999.93
2017-12-16T16:58:07.024Z,999.96
2017-12-16T16:59:07.028Z,999.95
2017-12-16T17:00:59.842Z,999.99
2017-12-16T17:01:59.875Z,1000.05
2017-12-16T17:03:52.764Z,1000.05
2017-12-16T17:04:52.660Z,1000.05
2017-12-16T17:06:46.058Z,1000.11
2017-12-16T17:07:46.088Z,1000.06
2017-12-16T17:09:38.945Z,1000.13
2017-12-16T17:10:38.871Z,1000.10
2017-12-16T17:12:31.757Z,1000.18
2017-12-16T17:13:31.723Z,1000.14
2017-12-16T17:15:24.644Z,1000.19
2017-12-16T17:16:24.642Z,1000.24
2017-12-16T17:18:17.528Z,1000.25
2017-12-16T17:19:17.428Z,1000.27
2017-12-16T17:21:10.375Z,1000.28
2017-12-16T17:22:10.284Z,1000.31
2017-12-16T17:24:03.161Z,1000.30
2017-12-16T17:25:03.191Z,1000.28
2017-12-16T17:26:56.076Z,1000.33
2017-12-16T17:27:55.979Z,1000.33
2017-12-16T17:29:48.864Z,1000.37
2017-12-16T17:30:48.828Z,1000.36
2017-12-16T17:32:41.740Z,1000.37
2017-12-16T17:33:41.677Z,1000.38
2017-12-16T17:35:34.629Z,1000.37
2017-12-16T17:36:34.531Z,1000.39
2017-12-16T17:38:27.449Z,1000.41
2017-12-16T17:39:27.378Z,1000.45
2017-12-16T17:41:20.331Z,1000.44
2017-12-16T17:42:20.232Z,1000.48
2017-12-16T17:44:13.147Z,1000.42
2017-12-16T17:45:13.087Z,1000.44
2017-12-16T17:47:06.034Z,1000.56
2017-12-16T17:48:05.926Z,1000.54
2017-12-16T17:49:58.842Z,1000.55
2017-12-16T17:50:58.784Z,1000.55
2017-12-16T17:52:51.666Z,1000.53
2017-12-16T17:53:51.697Z,1000.58
2017-12-16T17:55:44.714Z,1000.66
2017-12-16T17:56:44.549Z,1000.67
2017-12-16T17:58:37.371Z,1000.70
2017-12-16T17:59:37.337Z,1000.72
2017-12-16T18:01:30.250Z,1000.69
2017-12-16T18:02:30.254Z,1000.73
2017-12-16T18:04:23.138Z,1000.82
2017-12-16T18:05:23.034Z,1000.76
2017-12-16T18:07:15.947Z,1000.80
2017-12-16T18:08:15.886Z,1000.85
2017-12-16T18:10:08.832Z,1000.77